White Oak, WV (25989)

7:14 AM EDT on September 03, 2015 (GMT -0400)
Cool Ridge | | Change Station
CLOSE
Current Station
Personal Weather Station
Location: Raleigh Co., WV
Elevation: 2965 ft
Nearby Weather Stations

Elev 2965 ft 37.66 °N, 81.09 °W | Updated 7 seconds ago

Clear
Clear
62.4 °F
Feels Like 62.4 °F
N
0.0
Wind Variable Wind from SW

Today
High -- | Low -- °F
--% Chance of Precip.
Yesterday
High -- | Low -- °F
Precip. -- in
6:55 AM 7:50 PM
Waning Gibbous, 71% visible
Pressure 30.01 in
Visibility 4.0 miles
Clouds Mostly Cloudy 1200 ft
Dew Point 62 °F
Humidity 99%
Rainfall 0.00 in
Snow Depth Not available.
UV 0 out of 12
Pollen 9.30 out of 12
Air Quality Not available.
Flu Activity Not available.
METAR KBKW 031051Z AUTO 00000KT 4SM BR BKN012 17/16 A3011 RMK AO2 VIS 1 3/4 RWY19 SLP162 T01720161
Pressure 30.01 in
Visibility 4.0 miles
Clouds Mostly Cloudy 1200 ft
Dew Point 62 °F
Humidity 99%
Rainfall 0.00 in
Snow Depth Not available.
UV 0 out of 12
Pollen 9.30 out of 12
Air Quality Not available.
Flu Activity Not available.
METAR KBKW 031051Z AUTO 00000KT 4SM BR BKN012 17/16 A3011 RMK AO2 VIS 1 3/4 RWY19 SLP162 T01720161

10-Day Weather Forecast

×

Almanac

Astronomy

Sep. 03, 2015 Rise Set
Actual Time
Civil Twilight
Nautical Twilight
Astronomical Twilight
Moon
Length of Visible Light
Length of Day
Tomorrow will be .
, % of the Moon is Illuminated

Today's Extremes

State Highs State Lows

Community

WunderPhotos

Upload Photos

1,851,933 photos uploaded!

WunderBlogs® & News

Nearby

Air Quality

  Air Quality AQ Index Pollutant
Not available.

Snow Depth

Station Depth Elevation

Earthquake Activity

City Distance Mag. Time & Date
Minimum magnitude displayed is 2.5.

Coastal Water Temperatures

Place Temperature

Stations

Nearby Weather Stations

Station Location Temp. Windchill Dew Point Humidity Wind Precip. Elev Updated Type